Time;durP1;ratioP1;P1;durP2;ratioP2;P2;SDS_P1;SDS_P2;PMS_P1;PMS_P2;Temp;Humidity;BMP_temperature;BMP_pressure;BME280_temperature;BME280_humidity;BME280_pressure;Samples;Min_cycle;Max_cycle;Signal;HPM_P1;HPM_P2
2022/11/29 00:01:04;;;;;;;44.13;16.17;;;8.00;99.90;;;;;;5156844;27;20199;-82
2022/11/29 00:03:31;;;;;;;42.77;16.70;;;8.00;99.90;;;;;;5157505;27;20195;-81
2022/11/29 00:06:04;;;;;;;53.00;16.37;;;8.00;99.90;;;;;;5157520;27;20206;-81
2022/11/29 00:08:31;;;;;;;61.73;15.40;;;7.90;99.90;;;;;;5157473;27;20211;-84
2022/11/29 00:11:03;;;;;;;45.13;14.60;;;7.80;99.90;;;;;;5157426;27;20206;-88
2022/11/29 00:13:30;;;;;;;36.20;14.30;;;7.60;99.90;;;;;;5157858;27;20195;-90
2022/11/29 00:16:02;;;;;;;26.80;13.77;;;7.40;99.90;;;;;;5158153;27;20562;-90
2022/11/29 00:18:30;;;;;;;27.20;12.57;;;7.30;99.90;;;;;;5156818;27;20195;-90
2022/11/29 00:21:00;;;;;;;29.27;13.40;;;7.20;99.90;;;;;;5157798;27;20199;-91
2022/11/29 00:23:27;;;;;;;25.83;12.37;;;7.20;99.90;;;;;;5157633;27;20198;-84
2022/11/29 00:25:54;;;;;;;25.83;13.37;;;7.20;99.90;;;;;;5157124;27;20210;-81
2022/11/29 00:28:21;;;;;;;19.20;12.70;;;7.30;99.90;;;;;;5157347;27;20195;-78
2022/11/29 00:30:47;;;;;;;19.53;12.67;;;7.30;99.90;;;;;;5156833;27;20199;-82
2022/11/29 00:33:15;;;;;;;16.57;12.93;;;7.40;99.90;;;;;;5156869;27;20556;-80
2022/11/29 00:35:42;;;;;;;30.77;13.97;;;7.30;99.90;;;;;;5156447;27;20203;-82
2022/11/29 00:38:10;;;;;;;23.77;14.03;;;7.40;99.90;;;;;;5156782;27;20199;-81
2022/11/29 00:40:37;;;;;;;22.63;15.00;;;7.40;99.90;;;;;;5156636;27;20207;-80
2022/11/29 00:43:04;;;;;;;30.87;14.50;;;7.40;99.90;;;;;;5156764;27;20214;-87
2022/11/29 00:45:30;;;;;;;24.30;13.43;;;7.30;99.90;;;;;;5156545;27;20188;-78
2022/11/29 00:47:58;;;;;;;20.80;14.47;;;7.20;99.90;;;;;;5156294;27;20194;-82
2022/11/29 00:50:25;;;;;;;21.47;13.77;;;7.10;99.90;;;;;;5156655;27;20246;-82
2022/11/29 00:52:52;;;;;;;19.13;14.30;;;7.00;99.90;;;;;;5156566;27;20199;-84
2022/11/29 00:55:23;;;;;;;33.60;22.33;;;7.00;99.90;;;;;;5156051;27;20433;-87
2022/11/29 00:57:50;;;;;;;35.97;16.87;;;7.20;99.90;;;;;;5156849;27;20230;-86
2022/11/29 01:00:18;;;;;;;53.33;18.57;;;7.30;99.90;;;;;;5157223;27;20203;-92
2022/11/29 01:02:48;;;;;;;44.03;16.10;;;7.30;99.90;;;;;;5157284;27;20296;-90
2022/11/29 01:05:20;;;;;;;35.13;15.53;;;7.30;99.90;;;;;;5157316;27;20212;-90
2022/11/29 01:07:48;;;;;;;39.33;13.67;;;7.30;99.90;;;;;;5156707;27;20195;-92
2022/11/29 01:10:15;;;;;;;49.77;14.77;;;7.10;99.90;;;;;;5157111;27;20183;-80
2022/11/29 01:12:44;;;;;;;32.80;14.63;;;7.10;99.90;;;;;;5155923;27;20697;-88
2022/11/29 01:15:13;;;;;;;38.07;13.70;;;7.20;99.90;;;;;;5156095;27;20192;-83
2022/11/29 01:17:41;;;;;;;48.47;14.57;;;7.10;99.90;;;;;;5155848;27;20704;-81
2022/11/29 01:20:13;;;;;;;42.83;13.33;;;7.20;99.90;;;;;;5156383;27;20184;-86
2022/11/29 01:22:40;;;;;;;75.53;15.30;;;7.10;99.90;;;;;;5155744;27;20191;-88
2022/11/29 01:25:08;;;;;;;35.92;19.58;;;7.20;99.90;;;;;;5155001;27;20428;-83
2022/11/29 01:27:35;;;;;;;37.23;14.37;;;7.10;99.90;;;;;;5156421;27;20192;-91
2022/11/29 01:30:11;;;;;;;41.40;12.90;;;7.00;99.90;;;;;;5156377;27;20191;-85
2022/11/29 01:32:38;;;;;;;44.67;13.63;;;7.00;99.90;;;;;;5156211;27;20210;-86
2022/11/29 01:35:07;;;;;;;37.33;12.90;;;6.90;99.90;;;;;;5156546;27;20206;-91
2022/11/29 01:37:34;;;;;;;48.30;12.63;;;6.90;99.90;;;;;;5155610;27;20234;-88
2022/11/29 01:40:05;;;;;;;33.13;13.10;;;6.90;99.90;;;;;;5156586;27;20215;-88
2022/11/29 01:42:32;;;;;;;40.23;13.03;;;6.80;99.90;;;;;;5155889;27;20199;-85
2022/11/29 01:45:13;;;;;;;28.70;12.70;;;6.80;99.90;;;;;;5155786;27;20194;-82
2022/11/29 01:47:45;;;;;;;35.30;12.77;;;6.70;99.90;;;;;;5155409;27;20347;-81
2022/11/29 01:50:13;;;;;;;33.83;12.10;;;6.70;99.90;;;;;;5155432;27;20230;-81
2022/11/29 01:52:41;;;;;;;22.60;12.10;;;6.80;99.90;;;;;;5155103;27;20278;-86
2022/11/29 01:55:09;;;;;;;30.60;16.80;;;6.70;99.90;;;;;;5155079;27;20491;-82
2022/11/29 01:57:40;;;;;;;46.63;14.07;;;6.80;99.90;;;;;;5155893;27;20221;-81
2022/11/29 02:00:12;;;;;;;42.57;12.97;;;6.70;99.90;;;;;;5155812;27;20227;-86
2022/11/29 02:02:42;;;;;;;50.60;14.00;;;6.60;99.90;;;;;;5155509;27;20888;-86
2022/11/29 02:05:12;;;;;;;46.70;13.50;;;6.50;99.90;;;;;;5155413;27;20637;-79
2022/11/29 02:07:39;;;;;;;51.43;13.83;;;6.50;99.90;;;;;;5155880;27;20199;-91
2022/11/29 02:10:15;;;;;;;38.40;12.77;;;6.50;99.90;;;;;;5155546;27;20670;-90
2022/11/29 02:12:54;;;;;;;37.10;12.67;;;6.40;99.90;;;;;;5155272;27;20198;-85
2022/11/29 02:15:33;;;;;;;41.10;13.33;;;6.40;99.90;;;;;;5155051;27;20190;-79
2022/11/29 02:18:07;;;;;;;44.27;12.47;;;6.40;99.90;;;;;;5155155;27;20219;-82
2022/11/29 02:21:07;;;;;;;54.83;12.07;;;6.40;99.90;;;;;;5154894;27;20209;-80
2022/11/29 02:24:05;;;;;;;48.87;12.93;;;6.30;99.90;;;;;;5154413;27;20203;-84
2022/11/29 02:27:06;;;;;;;31.43;17.53;;;6.20;99.90;;;;;;5154601;27;20520;-84
2022/11/29 02:30:04;;;;;;;31.40;12.47;;;6.10;99.90;;;;;;5155715;27;20195;-84
2022/11/29 02:33:08;;;;;;;52.63;12.87;;;6.00;99.90;;;;;;5148945;27;20662;-89
2022/11/29 02:36:13;;;;;;;32.77;13.30;;;6.10;99.90;;;;;;5155092;27;20222;-84
2022/11/29 02:39:14;;;;;;;29.87;11.80;;;6.10;99.90;;;;;;5155364;27;20199;-87
2022/11/29 02:41:57;;;;;;;25.97;11.77;;;5.90;99.90;;;;;;5156852;27;20210;-79
2022/11/29 02:44:45;;;;;;;31.00;11.77;;;6.00;99.90;;;;;;5159255;27;20194;-86
2022/11/29 02:47:21;;;;;;;30.53;13.60;;;6.10;99.90;;;;;;5159094;27;20564;-84
2022/11/29 02:50:13;;;;;;;19.87;11.53;;;6.10;99.90;;;;;;5158718;27;20244;-81
2022/11/29 02:52:48;;;;;;;22.50;10.87;;;6.00;99.90;;;;;;5158753;27;20207;-81
2022/11/29 02:55:20;;;;;;;30.08;12.38;;;5.90;99.90;;;;;;5159125;27;20418;-90
2022/11/29 02:57:55;;;;;;;22.90;12.53;;;5.90;99.90;;;;;;5159028;27;20677;-89
2022/11/29 03:00:23;;;;;;;29.10;11.77;;;6.00;99.90;;;;;;5159510;27;20191;-80
2022/11/29 03:03:02;;;;;;;27.03;11.37;;;5.90;99.90;;;;;;5158899;27;20195;-79
2022/11/29 03:05:41;;;;;;;18.60;11.07;;;5.80;99.90;;;;;;5148589;27;20223;-86
2022/11/29 03:08:17;;;;;;;23.10;11.00;;;5.70;99.90;;;;;;5137855;27;20210;-89
2022/11/29 03:10:55;;;;;;;35.57;11.67;;;5.70;99.90;;;;;;5137141;27;20184;-89
2022/11/29 03:13:30;;;;;;;28.87;11.97;;;5.70;99.90;;;;;;5137311;27;20204;-78
2022/11/29 03:16:03;;;;;;;37.07;11.70;;;5.70;99.90;;;;;;5137664;27;20188;-88
2022/11/29 03:18:41;;;;;;;36.77;12.97;;;5.80;99.90;;;;;;5137618;27;20219;-80
2022/11/29 03:21:18;;;;;;;50.97;12.97;;;5.80;99.90;;;;;;5137287;27;20210;-83
2022/11/29 03:23:49;;;;;;;29.40;12.20;;;5.80;99.90;;;;;;5137583;27;20204;-83
2022/11/29 03:26:21;;;;;;;28.07;11.50;;;5.70;99.90;;;;;;5137832;27;20188;-83
2022/11/29 03:28:54;;;;;;;28.60;11.33;;;5.70;99.90;;;;;;5137943;27;20632;-89
2022/11/29 03:31:29;;;;;;;28.10;12.20;;;5.70;99.90;;;;;;5137649;27;20658;-88
2022/11/29 03:34:04;;;;;;;42.57;12.80;;;5.70;99.90;;;;;;5137667;27;20196;-94
2022/11/29 03:36:42;;;;;;;20.30;11.70;;;5.60;99.90;;;;;;5138325;27;20191;-95
2022/11/29 03:39:17;;;;;;;30.97;12.63;;;5.60;99.90;;;;;;5138963;27;20187;-94
2022/11/29 03:41:52;;;;;;;25.10;11.77;;;5.60;99.90;;;;;;5138063;27;20191;-94
2022/11/29 03:44:26;;;;;;;36.30;13.30;;;5.70;99.90;;;;;;5143610;27;20195;-94
2022/11/29 03:47:02;;;;;;;41.30;12.87;;;5.70;99.90;;;;;;5155170;27;20210;-91
2022/11/29 03:49:35;;;;;;;36.33;12.37;;;5.60;99.90;;;;;;5145035;27;20219;-92
2022/11/29 03:52:15;;;;;;;31.07;11.80;;;5.60;99.90;;;;;;5158416;27;20203;-88
2022/11/29 03:54:53;;;;;;;34.43;12.33;;;5.40;99.90;;;;;;5157993;27;20207;-91
2022/11/29 03:57:34;;;;;;;24.63;17.67;;;5.30;99.90;;;;;;5157448;27;20429;-92
2022/11/29 04:00:06;;;;;;;40.07;13.47;;;5.50;99.90;;;;;;5157839;27;20210;-93
2022/11/29 04:03:24;;;;;;;27.70;11.90;;;5.30;99.90;;;;;;5147799;27;20215;-93
2022/11/29 04:06:30;;;;;;;31.33;11.73;;;5.40;99.90;;;;;;5094344;28;20204;-93
2022/11/29 04:09:35;;;;;;;33.90;11.10;;;5.50;99.90;;;;;;5067039;28;20235;-89
2022/11/29 04:12:37;;;;;;;25.80;10.83;;;5.50;99.90;;;;;;5150919;27;20199;-92
2022/11/29 04:15:34;;;;;;;24.80;11.63;;;5.40;99.90;;;;;;5102821;27;20565;-91
2022/11/29 04:18:37;;;;;;;39.50;11.20;;;5.40;99.90;;;;;;5144707;27;20227;-93
2022/11/29 04:21:38;;;;;;;25.80;10.90;;;5.50;99.90;;;;;;5158255;27;20210;-94
2022/11/29 04:24:56;;;;;;;36.40;11.57;;;5.40;99.90;;;;;;5155959;27;20556;-88
2022/11/29 04:27:58;;;;;;;33.45;18.02;;;5.40;99.90;;;;;;5073182;28;20416;-94
2022/11/29 04:30:42;;;;;;;32.90;13.07;;;5.60;99.90;;;;;;5073321;28;20210;-93
2022/11/29 04:33:47;;;;;;;29.90;13.00;;;5.60;99.90;;;;;;5073217;28;20209;-87
2022/11/29 04:36:36;;;;;;;23.07;11.30;;;5.70;99.90;;;;;;5067505;28;20259;-91
2022/11/29 04:39:28;;;;;;;18.37;11.23;;;5.70;99.90;;;;;;5064678;28;20210;-93
2022/11/29 04:42:33;;;;;;;18.17;11.73;;;5.70;99.90;;;;;;5073924;28;20199;-91
2022/11/29 04:45:48;;;;;;;16.53;11.00;;;5.50;99.90;;;;;;5146504;27;20212;-93
2022/11/29 04:48:33;;;;;;;12.87;10.50;;;5.60;99.90;;;;;;5157438;27;20558;-92
2022/11/29 04:51:12;;;;;;;11.50;10.30;;;5.60;99.90;;;;;;5157270;27;20242;-89
2022/11/29 04:53:48;;;;;;;12.70;10.77;;;5.50;99.90;;;;;;5157245;27;20202;-93
2022/11/29 04:56:25;;;;;;;11.30;10.07;;;5.50;99.90;;;;;;5157663;27;20210;-93
2022/11/29 04:59:04;;;;;;;15.90;11.00;;;5.70;99.90;;;;;;5157174;27;20279;-92
2022/11/29 05:01:50;;;;;;;12.77;10.83;;;5.70;99.90;;;;;;5157161;27;20199;-92
2022/11/29 05:04:21;;;;;;;13.60;10.80;;;5.90;99.90;;;;;;5157221;27;20207;-87
2022/11/29 05:07:02;;;;;;;16.03;11.70;;;5.90;99.90;;;;;;5157454;27;20195;-90
2022/11/29 05:09:55;;;;;;;14.30;11.20;;;6.00;99.90;;;;;;5157447;27;20202;-89
2022/11/29 05:12:31;;;;;;;15.43;11.07;;;5.90;99.90;;;;;;5158355;27;20184;-88
2022/11/29 05:15:30;;;;;;;14.50;11.37;;;5.90;99.90;;;;;;5157887;27;20203;-79
2022/11/29 05:18:10;;;;;;;13.70;10.73;;;5.90;99.90;;;;;;5130657;27;20227;-83
2022/11/29 05:20:47;;;;;;;13.20;10.33;;;5.90;99.90;;;;;;5158199;27;20191;-85
2022/11/29 05:23:44;;;;;;;13.57;10.50;;;6.00;99.90;;;;;;5157665;27;20207;-84
2022/11/29 05:26:20;;;;;;;15.03;11.80;;;5.90;99.90;;;;;;5157925;27;20187;-88
2022/11/29 05:28:59;;;;;;;13.63;11.07;;;5.80;99.90;;;;;;5157882;27;20210;-83
2022/11/29 05:31:49;;;;;;;12.67;10.87;;;5.80;99.90;;;;;;5158280;27;20665;-89
2022/11/29 05:34:38;;;;;;;12.47;10.80;;;5.60;99.90;;;;;;5155583;27;20650;-82
2022/11/29 05:37:19;;;;;;;13.03;11.13;;;5.50;99.90;;;;;;5155141;27;20210;-81
2022/11/29 05:40:18;;;;;;;12.30;10.63;;;5.30;99.90;;;;;;5155250;27;20206;-78
2022/11/29 05:43:00;;;;;;;13.03;10.43;;;5.30;99.90;;;;;;5155591;27;20191;-81
2022/11/29 05:45:32;;;;;;;13.57;11.30;;;5.30;99.90;;;;;;5155486;27;20346;-81
2022/11/29 05:48:05;;;;;;;15.20;11.10;;;5.30;99.90;;;;;;5155479;27;20183;-83
2022/11/29 05:50:39;;;;;;;13.73;10.53;;;5.30;99.90;;;;;;5155378;27;20226;-82
2022/11/29 05:53:16;;;;;;;14.97;11.80;;;5.30;99.90;;;;;;5155554;27;20225;-80
2022/11/29 05:55:59;;;;;;;14.17;10.77;;;5.40;99.90;;;;;;5155465;27;20202;-82
2022/11/29 05:58:32;;;;;;;15.33;11.13;;;5.40;99.90;;;;;;5155301;27;20215;-87
2022/11/29 06:01:05;;;;;;;17.80;11.60;;;5.50;99.90;;;;;;5148854;27;20207;-78
2022/11/29 06:03:37;;;;;;;16.47;11.27;;;5.40;99.90;;;;;;5135556;27;20285;-83
2022/11/29 06:06:14;;;;;;;18.57;10.97;;;5.30;99.90;;;;;;5138208;27;20651;-84
2022/11/29 06:08:48;;;;;;;25.27;10.13;;;5.30;99.90;;;;;;5154559;27;20224;-82
2022/11/29 06:11:19;;;;;;;18.73;11.50;;;5.20;99.90;;;;;;5142384;27;20199;-81
2022/11/29 06:13:57;;;;;;;19.93;10.83;;;5.00;99.90;;;;;;5153826;27;20213;-80
2022/11/29 06:16:40;;;;;;;22.67;10.10;;;5.00;99.90;;;;;;5153424;27;20658;-83
2022/11/29 06:19:28;;;;;;;30.47;10.67;;;4.90;99.90;;;;;;5154833;27;20219;-79
2022/11/29 06:22:04;;;;;;;25.03;10.83;;;5.10;99.90;;;;;;5155030;27;20756;-80
2022/11/29 06:24:50;;;;;;;25.70;11.57;;;5.10;99.90;;;;;;5155266;27;20210;-86
2022/11/29 06:27:56;;;;;;;24.10;14.47;;;5.30;99.90;;;;;;5153774;27;20421;-81
2022/11/29 06:30:26;;;;;;;23.33;10.97;;;5.20;99.90;;;;;;5154375;27;20722;-80
2022/11/29 06:33:00;;;;;;;23.03;10.90;;;5.20;99.90;;;;;;5154914;27;20203;-83
2022/11/29 06:35:42;;;;;;;26.40;10.03;;;5.30;99.90;;;;;;5154844;27;20206;-84
2022/11/29 06:38:17;;;;;;;27.67;10.30;;;5.40;99.90;;;;;;5155220;27;20547;-81
2022/11/29 06:40:47;;;;;;;22.17;11.33;;;5.40;99.90;;;;;;5154625;27;20205;-80
2022/11/29 06:43:14;;;;;;;32.27;10.83;;;5.30;99.90;;;;;;5154911;27;20199;-81
2022/11/29 06:45:45;;;;;;;40.50;10.53;;;5.20;99.90;;;;;;5154637;27;20673;-82
2022/11/29 06:48:19;;;;;;;38.63;11.07;;;5.00;99.90;;;;;;5155072;27;20210;-79
2022/11/29 06:50:53;;;;;;;38.23;11.33;;;5.10;99.90;;;;;;5150148;27;20212;-86
2022/11/29 06:53:29;;;;;;;28.23;10.63;;;5.10;99.90;;;;;;5142771;27;20214;-82
2022/11/29 06:56:02;;;;;;;24.05;10.48;;;5.10;99.90;;;;;;5132726;27;20921;-84
2022/11/29 06:58:38;;;;;;;17.50;10.33;;;5.10;99.90;;;;;;5132724;27;20230;-85
2022/11/29 08:01:05;;;;;;;45.03;14.63;;;3.70;99.90;;;;;;5107489;27;20562;-81
2022/11/29 08:03:34;;;;;;;51.53;13.87;;;4.50;99.90;;;;;;5110341;28;20204;-84
2022/11/29 08:06:01;;;;;;;54.13;13.33;;;4.50;99.90;;;;;;5110131;28;20581;-84
2022/11/29 08:08:28;;;;;;;64.07;14.70;;;4.70;99.90;;;;;;5110972;28;20641;-87
2022/11/29 08:10:55;;;;;;;39.90;13.00;;;4.80;99.90;;;;;;5112672;28;20631;-80
2022/11/29 08:13:22;;;;;;;45.67;13.50;;;4.90;99.90;;;;;;5112145;28;20204;-81
2022/11/29 08:15:49;;;;;;;30.37;11.67;;;5.00;99.90;;;;;;5114042;28;20185;-92
2022/11/29 08:18:17;;;;;;;41.27;12.77;;;5.00;99.90;;;;;;5113477;28;20201;-83
2022/11/29 08:20:45;;;;;;;46.80;11.97;;;5.10;99.90;;;;;;5112726;28;20211;-82
2022/11/29 08:23:12;;;;;;;47.33;17.15;;;5.00;99.90;;;;;;5111874;28;20433;-80
2022/11/29 08:25:39;;;;;;;41.23;13.60;;;5.20;99.90;;;;;;5112806;28;20200;-79
2022/11/29 08:28:06;;;;;;;35.47;12.47;;;5.20;99.90;;;;;;5112185;28;20189;-88
2022/11/29 08:30:33;;;;;;;37.03;13.00;;;5.30;99.90;;;;;;5112512;28;20220;-88
2022/11/29 08:33:00;;;;;;;34.30;12.00;;;5.30;99.90;;;;;;5112825;28;20209;-84
2022/11/29 08:35:29;;;;;;;47.50;12.00;;;5.30;99.90;;;;;;5112233;28;20189;-89
2022/11/29 08:37:58;;;;;;;42.57;14.57;;;5.20;99.90;;;;;;5111617;28;20205;-92
2022/11/29 08:40:25;;;;;;;624.93;95.33;;;5.30;99.90;;;;;;5113014;28;20217;-82
2022/11/29 08:42:52;;;;;;;67.67;16.03;;;5.30;99.90;;;;;;5114457;28;20275;-86
2022/11/29 08:45:19;;;;;;;43.10;11.73;;;5.40;99.90;;;;;;5111454;28;20658;-90
2022/11/29 08:47:45;;;;;;;44.97;12.60;;;5.30;99.90;;;;;;5111791;28;20195;-87
2022/11/29 08:50:14;;;;;;;238.20;31.40;;;5.40;99.90;;;;;;5111221;28;20220;-88
2022/11/29 08:55:32;;;;;;;25.37;11.07;;;5.50;99.90;;;;;;5111571;28;20253;-82
2022/11/29 08:58:02;;;;;;;28.00;10.83;;;5.50;99.90;;;;;;5111379;28;20215;-82
2022/11/29 09:00:29;;;;;;;39.53;11.57;;;5.60;99.90;;;;;;5106212;28;20680;-84
2022/11/29 09:03:58;;;;;;;36.33;10.83;;;5.40;99.90;;;;;;5097795;28;20640;-82
2022/11/29 09:05:43;;;;;;;25.20;10.00;;;5.50;99.90;;;;;;5096961;28;20202;-84
2022/11/29 09:08:11;;;;;;;42.23;9.43;;;5.50;99.90;;;;;;5094509;28;20185;-82
2022/11/29 09:10:39;;;;;;;25.87;9.03;;;5.40;99.90;;;;;;5087477;28;20228;-85
2022/11/29 09:13:06;;;;;;;45.00;9.80;;;5.50;99.90;;;;;;5084930;28;20299;-83
2022/11/29 09:15:33;;;;;;;37.17;10.10;;;5.60;99.90;;;;;;5085443;28;20244;-86
2022/11/29 09:17:59;;;;;;;37.10;9.23;;;5.70;99.90;;;;;;5087644;28;20267;-86
2022/11/29 09:20:26;;;;;;;34.83;9.57;;;5.50;99.90;;;;;;5084446;28;20211;-87
2022/11/29 09:22:53;;;;;;;23.50;10.75;;;5.40;99.90;;;;;;5084478;28;20428;-83
2022/11/29 09:25:21;;;;;;;49.27;10.20;;;5.60;99.90;;;;;;5085744;28;20189;-85
2022/11/29 09:27:48;;;;;;;32.00;8.90;;;5.30;99.90;;;;;;5086724;28;20189;-87
2022/11/29 09:30:15;;;;;;;31.77;8.83;;;5.60;99.90;;;;;;5084758;28;20648;-84
2022/11/29 09:32:42;;;;;;;30.43;8.37;;;5.50;99.90;;;;;;5089928;28;20201;-82
2022/11/29 09:35:09;;;;;;;31.47;8.50;;;5.50;99.90;;;;;;5094533;28;20201;-84
2022/11/29 09:37:36;;;;;;;29.90;8.43;;;5.40;99.90;;;;;;5095984;28;20186;-82
2022/11/29 09:40:03;;;;;;;38.47;9.13;;;5.50;99.90;;;;;;5095444;28;20209;-85
2022/11/29 09:42:46;;;;;;;30.37;7.53;;;5.80;99.90;;;;;;5095837;28;20617;-84
2022/11/29 09:45:18;;;;;;;32.77;8.00;;;5.40;99.90;;;;;;5095608;28;20197;-82
2022/11/29 09:48:07;;;;;;;26.63;7.73;;;5.30;99.90;;;;;;5095646;28;20197;-84
2022/11/29 09:50:35;;;;;;;28.77;8.68;;;5.30;99.90;;;;;;5095910;28;20449;-83
2022/11/29 09:53:22;;;;;;;35.90;8.30;;;5.30;99.90;;;;;;5096165;28;20185;-83
2022/11/29 09:55:58;;;;;;;28.90;7.67;;;5.30;99.90;;;;;;5096094;28;20250;-87
2022/11/29 09:58:31;;;;;;;29.57;8.40;;;5.30;99.90;;;;;;5096612;28;20216;-82
2022/11/29 10:01:04;;;;;;;23.20;7.40;;;5.50;99.90;;;;;;5096750;28;20268;-85
2022/11/29 10:03:35;;;;;;;13.87;6.07;;;5.50;99.90;;;;;;5095621;28;20221;-83
2022/11/29 10:06:07;;;;;;;16.33;6.83;;;5.60;99.90;;;;;;5096470;28;20201;-86
2022/11/29 10:08:41;;;;;;;30.77;7.80;;;5.60;99.90;;;;;;5095364;28;20246;-88
2022/11/29 10:11:19;;;;;;;31.37;7.83;;;5.60;99.90;;;;;;5095929;28;20229;-86
2022/11/29 10:13:53;;;;;;;32.57;8.73;;;5.70;99.90;;;;;;5094689;28;20705;-84
2022/11/29 10:16:28;;;;;;;23.73;9.27;;;5.80;99.90;;;;;;5095501;28;20536;-83
2022/11/29 10:19:10;;;;;;;30.70;7.03;;;5.80;99.90;;;;;;5093861;28;20197;-84
2022/11/29 10:21:43;;;;;;;23.85;10.43;;;5.70;99.90;;;;;;5094135;28;20430;-86
2022/11/29 10:24:17;;;;;;;34.30;10.07;;;6.10;99.90;;;;;;5095549;28;20201;-86
2022/11/29 10:26:44;;;;;;;24.70;8.73;;;6.00;99.90;;;;;;5095561;28;20204;-87
2022/11/29 10:29:15;;;;;;;36.13;9.67;;;5.90;99.90;;;;;;5094846;28;20291;-88
2022/11/29 10:31:45;;;;;;;49.80;8.67;;;5.90;99.90;;;;;;5074829;28;20614;-84
2022/11/29 10:34:21;;;;;;;24.83;8.13;;;5.80;99.90;;;;;;5087833;28;20587;-87
2022/11/29 10:36:50;;;;;;;41.67;8.47;;;6.00;99.90;;;;;;5095390;28;20201;-85
2022/11/29 10:39:21;;;;;;;28.73;8.10;;;6.40;99.90;;;;;;5095015;28;20280;-83
2022/11/29 10:41:55;;;;;;;25.93;9.47;;;6.40;99.90;;;;;;5094734;28;20220;-89
2022/11/29 10:44:25;;;;;;;49.80;9.50;;;6.50;99.90;;;;;;5094932;28;20205;-87
2022/11/29 10:46:55;;;;;;;24.97;9.03;;;6.50;99.90;;;;;;5093087;28;20221;-83
2022/11/29 10:49:27;;;;;;;42.33;8.60;;;6.30;99.90;;;;;;5075165;28;20210;-89
2022/11/29 10:51:56;;;;;;;26.77;12.00;;;6.20;99.90;;;;;;5082286;28;20427;-91
2022/11/29 10:54:38;;;;;;;43.20;9.90;;;6.20;99.90;;;;;;5083696;28;20236;-89
2022/11/29 10:57:13;;;;;;;24.77;9.57;;;5.90;99.90;;;;;;5077212;28;20201;-88
2022/11/29 10:59:41;;;;;;;23.70;9.30;;;6.00;99.90;;;;;;5075357;28;20324;-88
2022/11/29 11:02:18;;;;;;;34.47;9.13;;;6.00;99.90;;;;;;5074992;28;20209;-84
2022/11/29 11:04:47;;;;;;;24.80;9.17;;;6.10;99.90;;;;;;5075209;28;20185;-79
2022/11/29 11:07:23;;;;;;;27.50;9.57;;;6.30;99.90;;;;;;5079350;28;20206;-88
2022/11/29 11:09:53;;;;;;;11.47;9.00;;;6.20;99.90;;;;;;5079336;28;20221;-89
2022/11/29 11:12:23;;;;;;;24.03;9.60;;;6.20;99.90;;;;;;5076453;28;20202;-90
2022/11/29 11:14:51;;;;;;;34.53;10.63;;;6.40;99.90;;;;;;5078689;28;20198;-89
2022/11/29 11:17:25;;;;;;;15.73;10.70;;;6.30;99.90;;;;;;5076672;28;20636;-85
2022/11/29 11:19:59;;;;;;;22.73;10.63;;;6.30;99.90;;;;;;5075611;28;20210;-90
2022/11/29 11:22:28;;;;;;;18.43;9.77;;;6.30;99.90;;;;;;5075897;28;20201;-93
2022/11/29 11:25:00;;;;;;;24.93;11.27;;;6.30;99.90;;;;;;5074762;28;20206;-90
2022/11/29 11:27:31;;;;;;;21.60;11.77;;;6.30;99.90;;;;;;5075154;28;20645;-91
2022/11/29 11:30:01;;;;;;;24.87;11.17;;;6.50;99.90;;;;;;5075197;28;20226;-88
2022/11/29 11:32:28;;;;;;;21.07;10.80;;;6.70;99.90;;;;;;5074989;28;20189;-90
2022/11/29 11:34:56;;;;;;;13.83;10.23;;;6.70;99.90;;;;;;5075365;28;20202;-89
2022/11/29 11:37:25;;;;;;;13.47;9.93;;;6.70;99.90;;;;;;5073901;28;20197;-86
2022/11/29 11:39:55;;;;;;;22.03;11.40;;;6.90;99.90;;;;;;5074347;28;20217;-90
2022/11/29 11:42:37;;;;;;;29.70;12.07;;;7.00;99.90;;;;;;5074828;28;20286;-89
2022/11/29 11:45:22;;;;;;;23.77;10.50;;;7.10;99.90;;;;;;5075222;28;20543;-87
2022/11/29 11:47:51;;;;;;;17.83;11.00;;;7.00;99.90;;;;;;5075005;28;20189;-88
2022/11/29 11:50:27;;;;;;;20.30;11.83;;;6.80;99.90;;;;;;5074568;28;20230;-88
2022/11/29 11:52:56;;;;;;;17.20;10.90;;;6.80;99.90;;;;;;5073337;28;20624;-90
2022/11/29 11:55:30;;;;;;;20.47;11.77;;;6.80;99.90;;;;;;5074840;28;20201;-87
2022/11/29 11:58:06;;;;;;;17.20;11.67;;;6.90;99.90;;;;;;5074617;28;20217;-86
2022/11/29 12:00:44;;;;;;;19.93;12.37;;;7.30;99.90;;;;;;5074029;28;20216;-86
2022/11/29 12:03:29;;;;;;;21.07;12.50;;;7.30;99.90;;;;;;5074707;28;20575;-82
2022/11/29 12:06:00;;;;;;;19.70;11.47;;;7.30;99.90;;;;;;5081765;28;20251;-87
2022/11/29 12:08:30;;;;;;;18.20;11.83;;;7.20;99.90;;;;;;5081984;28;20208;-89
2022/11/29 12:11:05;;;;;;;18.43;11.53;;;7.00;99.90;;;;;;5084103;28;20230;-88
2022/11/29 12:13:39;;;;;;;18.73;11.30;;;7.00;99.90;;;;;;5080605;28;20202;-88
2022/11/29 12:16:14;;;;;;;16.13;11.33;;;7.10;99.90;;;;;;5089096;28;20196;-89
2022/11/29 12:18:46;;;;;;;17.70;10.30;;;7.30;99.90;;;;;;5074227;28;20283;-89
2022/11/29 12:21:18;;;;;;;16.77;12.73;;;7.40;99.90;;;;;;5077594;28;20434;-89
2022/11/29 12:23:53;;;;;;;13.20;10.00;;;7.70;99.90;;;;;;5084276;28;20202;-89
2022/11/29 12:26:25;;;;;;;15.17;10.17;;;7.90;99.90;;;;;;5091605;28;20268;-87
2022/11/29 12:28:52;;;;;;;14.00;9.70;;;7.80;99.90;;;;;;5094370;28;20312;-87
2022/11/29 12:31:37;;;;;;;15.23;10.13;;;7.90;99.90;;;;;;5095138;28;20240;-87
2022/11/29 12:34:19;;;;;;;12.23;9.97;;;8.00;99.90;;;;;;5077085;28;20584;-89
2022/11/29 12:36:54;;;;;;;12.13;9.20;;;7.90;99.90;;;;;;5087830;28;20198;-90
2022/11/29 12:39:35;;;;;;;12.17;9.20;;;7.90;99.90;;;;;;5082845;28;20197;-87
2022/11/29 12:42:12;;;;;;;14.50;8.83;;;8.10;99.90;;;;;;5083373;28;20189;-88
2022/11/29 12:44:47;;;;;;;11.67;9.90;;;8.20;99.90;;;;;;5083766;28;20198;-89
2022/11/29 12:47:24;;;;;;;12.67;9.87;;;8.10;99.90;;;;;;5084262;28;20203;-87
2022/11/29 12:50:03;;;;;;;14.17;10.37;;;8.20;99.90;;;;;;5082344;28;20198;-88
2022/11/29 12:52:36;;;;;;;13.90;9.90;;;8.30;99.90;;;;;;5085264;28;20206;-88
2022/11/29 12:55:16;;;;;;;15.90;10.40;;;8.40;99.90;;;;;;5082281;28;20211;-88
2022/11/29 12:57:50;;;;;;;12.33;9.57;;;8.60;99.90;;;;;;5088196;28;20201;-86
2022/11/29 13:00:18;;;;;;;14.00;10.10;;;8.60;99.90;;;;;;5081968;28;20237;-87
2022/11/29 13:03:10;;;;;;;12.13;9.93;;;8.40;99.90;;;;;;5078775;28;20206;-89
2022/11/29 13:05:51;;;;;;;15.33;10.60;;;8.30;99.90;;;;;;5084918;28;20205;-89
2022/11/29 13:08:51;;;;;;;13.83;10.23;;;8.30;99.90;;;;;;5082683;28;20202;-89
2022/11/29 13:11:23;;;;;;;12.50;9.43;;;8.10;99.90;;;;;;5076482;28;20228;-89
2022/11/29 13:13:54;;;;;;;13.40;9.83;;;8.00;99.90;;;;;;5087805;28;20231;-87
2022/11/29 13:16:34;;;;;;;14.70;9.90;;;8.20;99.90;;;;;;5082059;28;20205;-90
2022/11/29 13:19:07;;;;;;;12.37;9.47;;;8.10;99.90;;;;;;5078208;28;20202;-84
2022/11/29 13:21:40;;;;;;;13.80;10.00;;;8.00;99.90;;;;;;5086584;28;20479;-84
2022/11/29 13:24:11;;;;;;;12.23;9.97;;;8.10;99.90;;;;;;5087738;28;20209;-85
2022/11/29 13:26:39;;;;;;;13.70;10.70;;;8.20;99.90;;;;;;5082770;28;20228;-87
2022/11/29 13:29:11;;;;;;;15.37;10.43;;;8.20;99.90;;;;;;5097112;28;20201;-87
2022/11/29 13:31:39;;;;;;;13.97;11.70;;;8.30;99.90;;;;;;5078448;28;20249;-86
2022/11/29 13:34:13;;;;;;;17.53;11.50;;;8.40;99.90;;;;;;5075874;28;20668;-85
2022/11/29 13:36:50;;;;;;;15.17;10.80;;;8.30;99.90;;;;;;5075710;28;20222;-83
2022/11/29 13:39:31;;;;;;;16.20;11.53;;;8.20;99.90;;;;;;5075990;28;20197;-84
2022/11/29 13:42:08;;;;;;;18.43;12.40;;;8.40;99.90;;;;;;5075213;28;20206;-85
2022/11/29 13:44:43;;;;;;;16.27;11.40;;;8.40;99.90;;;;;;5075587;28;20340;-84
2022/11/29 13:47:12;;;;;;;16.97;11.53;;;8.50;99.90;;;;;;5075568;28;20209;-85
2022/11/29 13:49:55;;;;;;;18.87;12.33;;;8.50;99.90;;;;;;5075609;28;20205;-83
2022/11/29 13:52:41;;;;;;;20.80;13.07;;;8.60;99.90;;;;;;5092830;28;20233;-85
2022/11/29 13:55:27;;;;;;;19.73;12.17;;;8.60;99.90;;;;;;5077517;28;20204;-89
2022/11/29 13:58:00;;;;;;;15.23;12.43;;;8.50;99.90;;;;;;5089710;28;20200;-89
2022/11/29 14:00:31;;;;;;;19.43;13.17;;;8.70;99.90;;;;;;5075478;28;20237;-88
2022/11/29 14:03:18;;;;;;;19.20;12.40;;;8.60;99.90;;;;;;5083355;28;20228;-89
2022/11/29 14:05:48;;;;;;;18.90;13.53;;;8.40;99.90;;;;;;5083401;28;20232;-89
2022/11/29 14:08:26;;;;;;;20.33;14.17;;;8.40;99.90;;;;;;5089229;28;20202;-90
2022/11/29 14:10:54;;;;;;;18.20;12.83;;;8.40;99.90;;;;;;5081227;28;20710;-87
2022/11/29 14:13:25;;;;;;;19.80;14.33;;;8.40;99.90;;;;;;5080827;28;20206;-88
2022/11/29 14:15:56;;;;;;;19.83;13.47;;;8.40;99.90;;;;;;5088386;28;20198;-88
2022/11/29 14:19:04;;;;;;;20.03;13.87;;;8.40;99.90;;;;;;5076545;28;20205;-88
2022/11/29 14:22:08;;;;;;;21.93;14.27;;;8.60;99.90;;;;;;5029200;28;20211;-89
2022/11/29 14:24:55;;;;;;;22.27;14.33;;;8.60;99.90;;;;;;5077696;28;20200;-87